createdAt,value
2022-12-17T00:00:36.849Z,21.80
2022-12-17T00:03:36.675Z,23.00
2022-12-17T00:06:23.061Z,22.93
2022-12-17T00:09:09.023Z,23.87
2022-12-17T00:11:56.100Z,26.83
2022-12-17T00:14:42.021Z,25.60
2022-12-17T00:17:27.938Z,25.27
2022-12-17T00:20:13.963Z,25.60
2022-12-17T00:22:59.875Z,26.13
2022-12-17T00:25:45.673Z,25.47
2022-12-17T00:28:32.191Z,25.47
2022-12-17T00:31:18.121Z,25.13
2022-12-17T00:34:03.906Z,23.47
2022-12-17T00:36:49.888Z,23.63
2022-12-17T00:39:35.887Z,25.40
2022-12-17T00:42:21.894Z,23.33
2022-12-17T00:45:07.797Z,25.93
2022-12-17T00:47:53.734Z,24.47
2022-12-17T00:50:39.714Z,23.13
2022-12-17T00:53:25.643Z,23.97
2022-12-17T00:56:11.771Z,24.57
2022-12-17T00:58:57.814Z,24.13
2022-12-17T01:01:43.902Z,24.63
2022-12-17T01:04:30.255Z,24.80
2022-12-17T01:07:16.247Z,24.57
2022-12-17T01:10:02.282Z,22.90
2022-12-17T01:12:48.294Z,23.43
2022-12-17T01:15:34.175Z,24.13
2022-12-17T01:18:20.173Z,23.67
2022-12-17T01:21:06.121Z,23.47
2022-12-17T01:23:52.057Z,24.47
2022-12-17T01:26:38.096Z,24.80
2022-12-17T01:29:24.034Z,22.57
2022-12-17T01:32:09.928Z,21.87
2022-12-17T01:35:12.420Z,21.97
2022-12-17T01:37:57.971Z,22.07
2022-12-17T01:40:43.893Z,22.80
2022-12-17T01:43:32.856Z,27.43
2022-12-17T01:46:19.151Z,26.07
2022-12-17T01:49:06.815Z,26.07
2022-12-17T01:51:53.414Z,25.33
2022-12-17T01:54:39.260Z,25.33
2022-12-17T01:57:26.292Z,23.77
2022-12-17T02:00:12.165Z,25.87
2022-12-17T02:02:58.236Z,22.97
2022-12-17T02:05:50.677Z,23.83
2022-12-17T02:08:39.068Z,24.17
2022-12-17T02:11:30.014Z,22.67
2022-12-17T02:14:34.663Z,23.10
2022-12-17T02:17:22.404Z,21.70
2022-12-17T02:20:08.342Z,23.07
2022-12-17T02:22:54.342Z,24.40
2022-12-17T02:26:29.018Z,23.77
2022-12-17T02:29:15.166Z,27.23
2022-12-17T02:32:02.216Z,27.07
2022-12-17T02:34:48.300Z,26.37
2022-12-17T02:37:34.175Z,23.73
2022-12-17T02:40:20.330Z,24.03
2022-12-17T02:43:08.016Z,25.10
2022-12-17T02:45:53.982Z,23.77
2022-12-17T02:48:39.825Z,24.70
2022-12-17T02:51:25.929Z,24.70
2022-12-17T02:54:13.264Z,24.87
2022-12-17T02:56:59.271Z,24.07
2022-12-17T02:59:45.145Z,23.20
2022-12-17T03:02:31.092Z,22.90
2022-12-17T03:05:43.376Z,23.83
2022-12-17T03:08:22.728Z,23.00
2022-12-17T03:11:08.580Z,22.60
2022-12-17T03:13:54.605Z,23.43
2022-12-17T03:16:40.468Z,22.93
2022-12-17T03:19:26.180Z,23.57
2022-12-17T03:22:12.125Z,24.60
2022-12-17T03:24:57.982Z,23.97
2022-12-17T03:27:44.190Z,23.90
2022-12-17T03:30:34.593Z,25.03
2022-12-17T03:33:21.581Z,24.77
2022-12-17T03:36:07.563Z,24.30
2022-12-17T03:38:53.589Z,23.30
2022-12-17T03:41:39.501Z,24.10
2022-12-17T03:44:25.379Z,24.37
2022-12-17T03:47:11.571Z,22.07
2022-12-17T03:49:57.400Z,22.20
2022-12-17T03:52:43.347Z,21.27
2022-12-17T03:55:29.327Z,22.50
2022-12-17T03:58:15.202Z,22.30
2022-12-17T04:01:01.165Z,22.20
2022-12-17T04:03:46.927Z,22.10
2022-12-17T04:06:32.739Z,20.93
2022-12-17T04:09:38.598Z,22.93
2022-12-17T04:12:24.877Z,22.60
2022-12-17T04:15:10.766Z,21.97
2022-12-17T04:17:56.679Z,20.83
2022-12-17T04:20:42.493Z,21.53
2022-12-17T04:23:28.483Z,20.77
2022-12-17T04:26:14.524Z,21.57
2022-12-17T04:29:00.363Z,20.70
2022-12-17T04:31:46.466Z,20.57
2022-12-17T04:34:32.419Z,21.50
2022-12-17T04:37:18.227Z,21.63
2022-12-17T04:40:04.307Z,21.73
2022-12-17T04:42:50.195Z,21.30
2022-12-17T04:45:36.261Z,21.67
2022-12-17T04:48:23.409Z,20.67
2022-12-17T04:51:09.252Z,20.77
2022-12-17T04:53:55.186Z,21.00
2022-12-17T04:56:41.154Z,21.60
2022-12-17T04:59:27.000Z,21.00
2022-12-17T05:02:13.231Z,21.80
2022-12-17T05:04:58.929Z,22.20
2022-12-17T05:07:44.876Z,21.90
2022-12-17T05:10:30.833Z,22.80
2022-12-17T05:13:20.366Z,22.83
2022-12-17T05:16:06.355Z,22.20
2022-12-17T05:18:52.331Z,21.17
2022-12-17T05:21:38.254Z,22.53
2022-12-17T05:24:24.180Z,22.43
2022-12-17T05:27:10.215Z,21.30
2022-12-17T05:29:56.048Z,22.27
2022-12-17T05:32:43.096Z,21.77
2022-12-17T05:35:29.087Z,21.50
2022-12-17T05:38:14.870Z,21.67
2022-12-17T05:41:00.966Z,20.67
2022-12-17T05:43:46.827Z,20.43
2022-12-17T05:46:32.928Z,21.57
2022-12-17T05:49:18.733Z,21.57
2022-12-17T05:52:04.475Z,21.13
2022-12-17T05:54:50.456Z,21.93
2022-12-17T05:57:36.442Z,20.20
2022-12-17T06:00:22.312Z,20.93
2022-12-17T06:03:08.351Z,19.30
2022-12-17T06:06:01.615Z,19.93
2022-12-17T06:08:47.471Z,19.87
2022-12-17T06:11:33.509Z,21.37
2022-12-17T06:14:19.579Z,20.63
2022-12-17T06:17:05.529Z,21.77
2022-12-17T06:19:51.497Z,22.17
2022-12-17T06:22:37.624Z,22.60
2022-12-17T06:25:23.675Z,22.10
2022-12-17T06:28:16.447Z,22.53
2022-12-17T06:31:02.429Z,22.30
2022-12-17T06:33:48.176Z,23.00
2022-12-17T06:36:34.090Z,22.80
2022-12-17T06:39:20.019Z,22.10
2022-12-17T06:42:05.843Z,20.73
2022-12-17T06:44:51.965Z,22.37
2022-12-17T06:47:51.695Z,25.17
2022-12-17T06:50:37.569Z,22.67
2022-12-17T06:53:24.728Z,21.00
2022-12-17T06:56:10.830Z,21.87
2022-12-17T06:58:57.010Z,20.97
2022-12-17T07:01:42.885Z,20.80
2022-12-17T07:04:29.034Z,20.90
2022-12-17T07:07:15.190Z,20.00
2022-12-17T07:10:01.289Z,19.23
2022-12-17T07:12:47.263Z,19.17
2022-12-17T07:15:33.279Z,19.90
2022-12-17T07:18:20.248Z,20.30
2022-12-17T07:21:06.817Z,19.23
2022-12-17T07:23:53.004Z,18.63
2022-12-17T07:26:38.950Z,18.93
2022-12-17T07:29:29.424Z,19.70
2022-12-17T07:32:15.503Z,19.27
2022-12-17T07:35:01.465Z,18.90
2022-12-17T07:37:47.430Z,18.33
2022-12-17T07:40:33.394Z,18.30
2022-12-17T07:43:19.328Z,17.17
2022-12-17T07:46:05.304Z,16.43
2022-12-17T07:48:51.088Z,15.40
2022-12-17T07:51:37.007Z,13.93
2022-12-17T07:54:23.087Z,16.00
2022-12-17T07:57:09.136Z,15.83
2022-12-17T07:59:55.192Z,21.37
2022-12-17T08:02:43.311Z,17.97
2022-12-17T08:05:29.013Z,24.77
2022-12-17T08:08:14.943Z,21.80
2022-12-17T08:11:03.631Z,25.90
2022-12-17T08:13:49.727Z,22.53
2022-12-17T08:16:35.685Z,23.67
2022-12-17T08:19:21.394Z,21.00
2022-12-17T08:22:07.323Z,18.93
2022-12-17T08:24:53.370Z,18.57
2022-12-17T08:27:39.421Z,29.53
2022-12-17T08:30:25.463Z,27.47
2022-12-17T08:33:11.177Z,23.40
2022-12-17T08:35:57.124Z,19.67
